Decoded Metar for KBLV (BELLEVILLE in IL, USA) (IATA:BLV) | Meteo·Mobile Aviation Weather
aviador You're here:

KBLV Decoded Metar

BELLEVILLE in IL, USA
Report Time2018-11-21 00:56:00
UTC Time2018-11-21 01:28:03
Flight Rules vfr VFR
Wind190° at 03 kt
W.Decomp.*RWY 14: 2.0 kt HW 2.2 kt RCW
W.Rank190° ranks 6
Current wind is below 190° avg. (7.8)
Visibility9999 m
Phenomena:N/A
Clouds:N/A
Expected CloudBase > 1,200 ft AGL from Temp-Dew spread
CeilingNone
Temp-2°C (ISA -16)
Dew Point-5°C (80% RH)
AAT-5.7°C
QNH1026 hPa
Density Alt-1,906 ft
Elevation453 ft
Report Wrong Elevation
Raw Report
KBLV 210056Z AUTO 19003KT 10SM CLR M02/M05 A3029 RMK AO2 SLP266
T10201050 $=

Extra information for KBLV:More info

Metar Taf Metar & Taf Last 4 Metars F.Rules Stats Wind Profile Meteogram Temp Stats Airport Information Weather charts Add Link Nearby VenuesMetar ALERT Operation Metar Decoded Social comments

AIRNAV info for KBLV